createdAt,value
2023-04-15T00:01:40.539Z,4.55
2023-04-15T00:04:07.145Z,3.72
2023-04-15T00:06:33.908Z,4.35
2023-04-15T00:09:01.068Z,3.63
2023-04-15T00:11:27.950Z,3.95
2023-04-15T00:13:56.339Z,5.53
2023-04-15T00:16:23.036Z,4.10
2023-04-15T00:18:49.852Z,2.30
2023-04-15T00:21:18.031Z,3.58
2023-04-15T00:23:44.563Z,2.17
2023-04-15T00:26:11.036Z,4.22
2023-04-15T00:28:37.621Z,2.28
2023-04-15T00:31:04.421Z,4.05
2023-04-15T00:33:36.703Z,4.20
2023-04-15T00:36:05.512Z,3.42
2023-04-15T00:38:32.021Z,4.10
2023-04-15T00:40:59.094Z,2.15
2023-04-15T00:43:30.996Z,2.72
2023-04-15T00:45:59.612Z,4.82
2023-04-15T00:48:28.440Z,2.95
2023-04-15T00:50:55.139Z,4.45
2023-04-15T00:53:21.697Z,2.60
2023-04-15T00:55:48.281Z,3.42
2023-04-15T00:58:15.280Z,3.83
2023-04-15T01:05:58.838Z,3.95
2023-04-15T01:08:28.346Z,5.20
2023-04-15T01:10:57.124Z,2.72
2023-04-15T01:13:28.812Z,2.22
2023-04-15T01:15:56.942Z,2.67
2023-04-15T01:18:23.940Z,2.17
2023-04-15T01:20:50.540Z,2.45
2023-04-15T01:23:17.514Z,3.03
2023-04-15T01:25:48.565Z,4.35
2023-04-15T01:28:19.635Z,3.30
2023-04-15T01:30:46.151Z,3.70
2023-04-15T01:33:12.665Z,3.58
2023-04-15T01:35:45.494Z,2.83
2023-04-15T01:38:12.444Z,2.50
2023-04-15T01:40:39.611Z,5.53
2023-04-15T01:43:06.192Z,5.22
2023-04-15T01:45:32.683Z,4.78
2023-04-15T01:47:59.250Z,5.30
2023-04-15T01:50:33.531Z,2.03
2023-04-15T01:52:59.993Z,1.77
2023-04-15T01:55:27.282Z,2.72
2023-04-15T01:57:55.724Z,1.77
2023-04-15T02:00:23.102Z,2.03
2023-04-15T02:02:49.706Z,5.00
2023-04-15T02:05:16.430Z,3.00
2023-04-15T02:07:43.654Z,1.95
2023-04-15T02:10:13.854Z,3.95
2023-04-15T02:12:40.886Z,2.75
2023-04-15T02:15:08.027Z,2.72
2023-04-15T02:17:35.820Z,3.80
2023-04-15T02:20:04.591Z,3.90
2023-04-15T02:22:33.053Z,2.97
2023-04-15T02:24:59.587Z,2.08
2023-04-15T02:27:28.414Z,4.65
2023-04-15T02:29:54.986Z,2.80
2023-04-15T02:32:23.339Z,1.42
2023-04-15T02:34:50.097Z,2.78
2023-04-15T02:37:17.119Z,4.43
2023-04-15T02:39:43.976Z,5.47
2023-04-15T02:42:12.267Z,2.85
2023-04-15T02:44:39.368Z,2.92
2023-04-15T02:47:07.156Z,8.23
2023-04-15T02:49:35.637Z,3.60
2023-04-15T02:52:02.351Z,2.90
2023-04-15T02:54:29.154Z,4.88
2023-04-15T02:56:56.473Z,4.30
2023-04-15T02:59:23.045Z,5.93
2023-04-15T03:01:49.735Z,1.77
2023-04-15T03:04:16.659Z,2.95
2023-04-15T03:06:43.692Z,3.05
2023-04-15T03:09:10.336Z,4.35
2023-04-15T03:11:42.416Z,6.20
2023-04-15T03:14:08.971Z,2.67
2023-04-15T03:16:35.557Z,2.90
2023-04-15T03:19:06.535Z,4.22
2023-04-15T03:21:33.159Z,4.20
2023-04-15T03:23:59.613Z,1.58
2023-04-15T03:26:30.595Z,3.78
2023-04-15T03:28:57.960Z,4.57
2023-04-15T03:31:26.908Z,5.60
2023-04-15T03:33:55.159Z,1.60
2023-04-15T03:36:21.789Z,4.03
2023-04-15T03:38:49.388Z,3.30
2023-04-15T03:41:23.869Z,2.05
2023-04-15T03:43:52.151Z,3.85
2023-04-15T03:46:22.402Z,1.80
2023-04-15T03:48:49.045Z,2.40
2023-04-15T03:51:15.575Z,3.08
2023-04-15T03:53:42.051Z,2.53
2023-04-15T03:56:08.779Z,2.45
2023-04-15T03:58:35.293Z,3.22
2023-04-15T04:01:02.119Z,3.28
2023-04-15T04:03:35.352Z,3.67
2023-04-15T04:06:02.418Z,2.03
2023-04-15T04:08:28.912Z,3.08
2023-04-15T04:10:57.199Z,1.63
2023-04-15T04:13:24.270Z,2.42
2023-04-15T04:15:50.896Z,3.55
2023-04-15T04:18:19.223Z,3.85
2023-04-15T04:20:45.804Z,2.70
2023-04-15T04:23:12.320Z,3.70
2023-04-15T04:25:43.429Z,6.88
2023-04-15T04:28:09.951Z,3.55
2023-04-15T04:30:36.647Z,5.18
2023-04-15T04:33:05.505Z,3.63
2023-04-15T04:35:34.876Z,3.05
2023-04-15T04:38:04.107Z,3.03
2023-04-15T04:40:31.372Z,4.28
2023-04-15T04:42:57.882Z,4.80
2023-04-15T04:45:24.388Z,3.13
2023-04-15T04:47:52.670Z,3.17
2023-04-15T04:50:21.316Z,4.97
2023-04-15T04:52:47.830Z,2.60
2023-04-15T04:55:14.613Z,2.60
2023-04-15T04:57:41.532Z,4.93
2023-04-15T05:00:09.056Z,2.83
2023-04-15T05:02:38.326Z,3.88
2023-04-15T05:05:07.037Z,2.35
2023-04-15T05:07:33.769Z,6.82
2023-04-15T05:10:00.578Z,1.45
2023-04-15T05:12:27.172Z,3.17
2023-04-15T05:14:53.628Z,3.78
2023-04-15T05:17:20.301Z,5.50
2023-04-15T05:19:46.836Z,4.55
2023-04-15T05:22:13.327Z,5.45
2023-04-15T05:24:39.979Z,3.00
2023-04-15T05:27:06.505Z,5.20
2023-04-15T05:29:33.030Z,4.60
2023-04-15T05:31:59.669Z,4.03
2023-04-15T05:34:26.406Z,2.47
2023-04-15T05:36:52.917Z,4.68
2023-04-15T05:39:19.592Z,1.92
2023-04-15T05:41:48.514Z,2.25
2023-04-15T05:44:15.055Z,3.58
2023-04-15T05:46:42.028Z,4.93
2023-04-15T05:49:08.514Z,3.42
2023-04-15T05:51:35.036Z,2.78
2023-04-15T05:54:08.512Z,2.20
2023-04-15T05:56:35.195Z,4.40
2023-04-15T05:59:01.824Z,4.38
2023-04-15T06:01:28.472Z,5.05
2023-04-15T06:03:55.561Z,2.30
2023-04-15T06:06:24.565Z,3.97
2023-04-15T06:08:52.788Z,6.22
2023-04-15T06:11:21.442Z,3.55
2023-04-15T06:13:51.776Z,4.13
2023-04-15T06:16:18.326Z,4.22
2023-04-15T06:18:49.496Z,2.05
2023-04-15T06:21:16.067Z,7.82
2023-04-15T06:23:42.974Z,3.90
2023-04-15T06:26:09.507Z,3.20
2023-04-15T06:28:36.162Z,4.22
2023-04-15T06:31:03.223Z,2.25
2023-04-15T06:33:29.702Z,4.32
2023-04-15T06:35:56.195Z,2.42
2023-04-15T06:38:24.468Z,5.97
2023-04-15T06:40:51.063Z,3.45
2023-04-15T06:43:20.252Z,2.67
2023-04-15T06:45:49.595Z,2.63
2023-04-15T06:48:16.286Z,4.78
2023-04-15T06:50:42.829Z,5.18
2023-04-15T06:53:09.522Z,3.72
2023-04-15T06:55:40.253Z,5.20
2023-04-15T06:58:06.863Z,5.03
2023-04-15T07:00:35.858Z,10.57
2023-04-15T07:03:03.860Z,7.20
2023-04-15T07:05:31.072Z,7.93
2023-04-15T07:08:04.254Z,4.38
2023-04-15T07:10:30.952Z,5.10
2023-04-15T07:12:57.455Z,4.32
2023-04-15T07:15:25.700Z,5.47
2023-04-15T07:17:52.226Z,5.15
2023-04-15T07:20:18.936Z,3.38
2023-04-15T07:22:47.206Z,5.25
2023-04-15T07:25:13.691Z,5.22
2023-04-15T07:27:40.204Z,4.45
2023-04-15T07:30:09.500Z,4.25
2023-04-15T07:32:41.125Z,4.32
2023-04-15T07:35:08.475Z,6.80
2023-04-15T07:37:37.253Z,4.95
2023-04-15T07:40:05.075Z,2.22
2023-04-15T07:42:31.759Z,4.53
2023-04-15T07:45:10.307Z,4.63
2023-04-15T07:47:42.170Z,5.57
2023-04-15T07:50:11.216Z,5.15
2023-04-15T07:52:42.707Z,5.47
2023-04-15T07:55:09.809Z,7.93
2023-04-15T07:57:38.638Z,5.00
2023-04-15T08:00:07.816Z,3.83
2023-04-15T08:02:35.891Z,5.85
2023-04-15T08:05:04.618Z,3.92
2023-04-15T08:07:31.841Z,5.43
2023-04-15T08:10:02.384Z,5.20
2023-04-15T08:12:28.956Z,4.43
2023-04-15T08:14:56.889Z,3.40
2023-04-15T08:17:24.084Z,4.72
2023-04-15T08:19:50.815Z,4.97
2023-04-15T08:22:20.626Z,5.70
2023-04-15T08:24:48.423Z,5.38
2023-04-15T08:27:15.018Z,5.47
2023-04-15T08:29:43.252Z,9.48
2023-04-15T08:32:09.723Z,5.55
2023-04-15T08:34:36.384Z,3.33
2023-04-15T08:37:04.909Z,2.78
2023-04-15T08:39:31.466Z,4.85
2023-04-15T08:42:02.775Z,3.13
2023-04-15T08:44:33.539Z,2.97
2023-04-15T08:47:04.002Z,1.90
2023-04-15T08:49:31.964Z,2.42
2023-04-15T08:52:01.381Z,2.08
2023-04-15T08:54:31.829Z,2.72
2023-04-15T08:56:58.838Z,2.35
2023-04-15T08:59:25.955Z,2.95
2023-04-15T09:01:53.366Z,2.45
2023-04-15T09:04:20.088Z,2.97
2023-04-15T09:06:49.296Z,3.20
2023-04-15T09:09:15.792Z,2.03
2023-04-15T09:11:42.688Z,0.80
2023-04-15T09:14:13.940Z,1.08
2023-04-15T09:17:00.884Z,1.13
2023-04-15T09:19:32.237Z,0.88
2023-04-15T09:21:59.669Z,1.98
2023-04-15T09:24:41.784Z,2.63
2023-04-15T09:27:08.343Z,1.77
2023-04-15T09:29:34.875Z,1.00
2023-04-15T09:32:12.471Z,2.03
2023-04-15T09:34:39.170Z,1.55
2023-04-15T09:37:07.590Z,2.53
2023-04-15T09:39:53.882Z,3.83
2023-04-15T09:42:26.913Z,1.65
2023-04-15T09:44:53.617Z,0.68
2023-04-15T09:47:36.039Z,1.58
2023-04-15T09:50:02.753Z,1.23
2023-04-15T09:52:30.076Z,1.20
2023-04-15T09:54:58.972Z,0.88
2023-04-15T09:57:25.783Z,1.00
2023-04-15T09:59:52.349Z,2.17
2023-04-15T10:02:21.521Z,1.63
2023-04-15T10:04:48.874Z,2.83
2023-04-15T10:07:15.835Z,1.88
2023-04-15T10:09:52.125Z,2.53
2023-04-15T10:12:19.923Z,2.58
2023-04-15T10:14:56.873Z,1.88
2023-04-15T10:17:26.385Z,2.05
2023-04-15T10:19:55.047Z,1.35
2023-04-15T10:22:25.128Z,1.67
2023-04-15T10:24:52.593Z,1.63
2023-04-15T10:27:20.416Z,1.23
2023-04-15T10:29:52.678Z,1.83
2023-04-15T10:32:21.299Z,1.83
2023-04-15T10:34:52.452Z,1.83
2023-04-15T10:37:24.285Z,0.70
2023-04-15T10:39:51.149Z,2.08
2023-04-15T10:42:19.765Z,3.53
2023-04-15T10:44:54.019Z,2.28
2023-04-15T10:47:22.054Z,2.20
2023-04-15T10:49:58.892Z,1.50
2023-04-15T10:52:28.009Z,2.42
2023-04-15T10:55:18.829Z,2.47
2023-04-15T10:57:45.703Z,1.50
2023-04-15T11:00:16.581Z,3.28
2023-04-15T11:02:48.820Z,2.40
2023-04-15T11:05:17.146Z,3.05
2023-04-15T11:07:55.217Z,2.78
2023-04-15T11:10:31.090Z,3.08
2023-04-15T11:13:13.874Z,1.85
2023-04-15T11:15:42.330Z,2.15
2023-04-15T11:18:12.206Z,1.38
2023-04-15T11:20:40.428Z,2.03
2023-04-15T11:23:14.745Z,1.33
2023-04-15T11:25:44.773Z,1.80
2023-04-15T11:28:12.504Z,1.83
2023-04-15T11:30:39.984Z,1.65
2023-04-15T11:33:13.592Z,1.50
2023-04-15T11:35:41.983Z,1.00
2023-04-15T11:38:25.149Z,2.35
2023-04-15T11:40:54.540Z,1.35
2023-04-15T11:43:22.804Z,1.52
2023-04-15T11:45:56.571Z,0.80
2023-04-15T11:48:28.306Z,2.17
2023-04-15T11:51:08.351Z,0.95
2023-04-15T11:53:49.864Z,0.75
2023-04-15T11:56:23.740Z,1.33
2023-04-15T11:58:57.072Z,1.00
2023-04-15T12:01:44.045Z,0.82
2023-04-15T12:04:23.533Z,1.60
2023-04-15T12:06:51.888Z,0.63
2023-04-15T12:09:20.286Z,1.20
2023-04-15T12:11:48.020Z,0.80
2023-04-15T12:14:31.267Z,1.92
2023-04-15T12:17:05.355Z,0.90
2023-04-15T12:19:36.620Z,1.05
2023-04-15T12:22:13.385Z,0.70
2023-04-15T12:24:46.030Z,0.68
2023-04-15T12:27:14.388Z,0.90
2023-04-15T12:29:43.169Z,0.52
2023-04-15T12:32:14.155Z,0.88
2023-04-15T12:34:42.519Z,0.65
2023-04-15T12:37:11.541Z,0.50
2023-04-15T12:39:40.162Z,0.70
2023-04-15T12:42:07.664Z,1.42
2023-04-15T12:44:35.767Z,2.17
2023-04-15T12:47:04.233Z,0.63
2023-04-15T12:49:32.593Z,0.50
2023-04-15T12:52:00.732Z,0.50
2023-04-15T12:54:31.565Z,0.52
2023-04-15T12:56:59.261Z,0.35
2023-04-15T12:59:26.000Z,0.50
2023-04-15T13:01:54.600Z,0.30
2023-04-15T13:04:22.340Z,0.32
2023-04-15T13:06:52.631Z,0.52
2023-04-15T13:09:19.323Z,0.40
2023-04-15T13:11:46.007Z,0.50
2023-04-15T13:14:13.100Z,0.38
2023-04-15T13:16:41.780Z,0.50
2023-04-15T13:19:08.589Z,0.28
2023-04-15T13:21:36.260Z,0.30
2023-04-15T13:24:04.396Z,0.82
2023-04-15T13:26:31.718Z,1.60
2023-04-15T13:28:58.283Z,0.50
2023-04-15T13:31:29.487Z,0.75
2023-04-15T13:33:57.151Z,0.40
2023-04-15T13:36:23.636Z,0.32
2023-04-15T13:38:52.239Z,0.65
2023-04-15T13:41:18.959Z,1.15
2023-04-15T13:43:47.701Z,0.40
2023-04-15T13:46:16.409Z,0.77
2023-04-15T13:48:42.996Z,0.98
2023-04-15T13:51:09.732Z,0.40
2023-04-15T13:53:39.813Z,0.50
2023-04-15T13:56:07.730Z,0.57
2023-04-15T13:58:34.361Z,0.45
2023-04-15T14:01:05.197Z,0.35
2023-04-15T14:03:32.823Z,0.55
2023-04-15T14:05:59.608Z,0.40
2023-04-15T14:08:32.670Z,0.30
2023-04-15T14:10:59.196Z,1.15
2023-04-15T14:13:25.926Z,0.55
2023-04-15T14:16:00.807Z,0.30
2023-04-15T14:18:27.396Z,0.87
2023-04-15T14:20:57.432Z,0.47
2023-04-15T14:23:25.730Z,0.20
2023-04-15T14:25:53.223Z,1.67
2023-04-15T14:28:21.630Z,0.80
2023-04-15T14:30:50.451Z,0.70
2023-04-15T14:33:17.173Z,0.52
2023-04-15T14:35:43.700Z,0.43
2023-04-15T14:38:11.589Z,0.60
2023-04-15T14:40:38.357Z,0.47
2023-04-15T14:43:04.857Z,0.38
2023-04-15T14:45:31.508Z,0.70
2023-04-15T14:47:59.334Z,0.57
2023-04-15T14:50:25.982Z,0.40
2023-04-15T14:52:52.571Z,1.38
2023-04-15T14:55:19.082Z,0.75
2023-04-15T14:57:45.675Z,0.60
2023-04-15T15:00:15.946Z,0.63
2023-04-15T15:02:43.172Z,0.40
2023-04-15T15:05:10.838Z,2.35
2023-04-15T15:07:41.570Z,0.30
2023-04-15T15:10:08.265Z,0.63
2023-04-15T15:12:34.885Z,0.55
2023-04-15T15:15:15.779Z,0.65
2023-04-15T15:17:52.021Z,0.73
2023-04-15T15:20:23.808Z,0.47
2023-04-15T15:22:50.723Z,0.82
2023-04-15T15:25:17.401Z,1.48
2023-04-15T15:27:44.108Z,0.57
2023-04-15T15:30:11.246Z,0.82
2023-04-15T15:32:41.042Z,1.02
2023-04-15T15:35:09.912Z,0.75
2023-04-15T15:37:37.378Z,0.32
2023-04-15T15:40:08.008Z,0.50
2023-04-15T15:42:34.799Z,0.68
2023-04-15T15:45:04.121Z,0.80
2023-04-15T15:47:30.879Z,0.88
2023-04-15T15:49:57.676Z,0.52
2023-04-15T15:52:24.188Z,0.60
2023-04-15T15:54:50.715Z,0.70
2023-04-15T15:57:21.781Z,1.17
2023-04-15T15:59:48.267Z,0.73
2023-04-15T16:02:14.917Z,0.93
2023-04-15T16:04:45.324Z,0.65
2023-04-15T16:07:12.094Z,0.63
2023-04-15T16:09:41.171Z,0.73
2023-04-15T16:12:09.432Z,1.38
2023-04-15T16:14:36.522Z,1.00
2023-04-15T16:17:03.005Z,0.60
2023-04-15T16:19:29.704Z,1.25
2023-04-15T16:21:56.636Z,0.75
2023-04-15T16:24:23.200Z,0.80
2023-04-15T16:26:51.491Z,0.50
2023-04-15T16:29:18.001Z,1.35
2023-04-15T16:31:44.583Z,0.85
2023-04-15T16:34:17.800Z,1.20
2023-04-15T16:36:44.503Z,0.50
2023-04-15T16:39:11.077Z,0.73
2023-04-15T16:41:38.732Z,0.77
2023-04-15T16:44:05.542Z,0.35
2023-04-15T16:46:32.269Z,1.00
2023-04-15T16:48:58.971Z,0.82
2023-04-15T16:51:25.914Z,0.40
2023-04-15T16:53:52.409Z,0.93
2023-04-15T16:56:21.536Z,0.47
2023-04-15T16:58:48.214Z,1.08
2023-04-15T17:01:14.782Z,0.77
2023-04-15T17:03:41.608Z,1.05
2023-04-15T17:06:08.201Z,0.50
2023-04-15T17:08:34.702Z,0.50
2023-04-15T17:11:09.037Z,3.40
2023-04-15T17:13:35.573Z,1.45
2023-04-15T17:16:02.527Z,1.15
2023-04-15T17:18:33.772Z,1.02
2023-04-15T17:21:00.338Z,0.88
2023-04-15T17:23:27.318Z,1.20
2023-04-15T17:25:54.149Z,3.75
2023-04-15T17:28:20.656Z,1.13
2023-04-15T17:30:47.461Z,1.63
2023-04-15T17:33:26.139Z,2.28
2023-04-15T17:36:02.576Z,1.85
2023-04-15T17:38:29.304Z,0.88
2023-04-15T17:40:55.758Z,0.95
2023-04-15T17:43:22.296Z,1.13
2023-04-15T17:45:48.945Z,2.70
2023-04-15T17:48:18.914Z,1.95
2023-04-15T17:50:45.822Z,0.90
2023-04-15T17:53:14.523Z,2.40
2023-04-15T17:55:41.103Z,3.20
2023-04-15T17:58:07.576Z,0.90
2023-04-15T18:00:36.600Z,1.75
2023-04-15T18:03:03.339Z,1.20
2023-04-15T18:05:30.271Z,1.30
2023-04-15T18:07:58.491Z,7.15
2023-04-15T18:10:25.034Z,2.67
2023-04-15T18:12:51.785Z,4.22
2023-04-15T18:15:18.867Z,5.65
2023-04-15T18:17:45.667Z,6.53
2023-04-15T18:20:12.911Z,8.25
2023-04-15T18:22:39.590Z,5.53
2023-04-15T18:25:08.691Z,5.30
2023-04-15T18:27:35.836Z,4.40
2023-04-15T18:30:04.570Z,7.20
2023-04-15T18:32:32.683Z,5.80
2023-04-15T18:34:59.448Z,8.13
2023-04-15T18:37:29.458Z,6.85
2023-04-15T18:39:56.090Z,7.72
2023-04-15T18:42:23.794Z,3.08
2023-04-15T18:44:50.459Z,2.25
2023-04-15T18:47:17.098Z,3.10
2023-04-15T18:49:43.914Z,3.05
2023-04-15T18:52:13.475Z,1.20
2023-04-15T18:54:40.017Z,1.73
2023-04-15T18:57:06.976Z,2.25
2023-04-15T19:02:35.435Z,2.15
2023-04-15T19:05:04.260Z,1.15
2023-04-15T19:07:31.290Z,1.35
2023-04-15T19:09:59.624Z,1.77
2023-04-15T19:12:26.181Z,1.20
2023-04-15T19:14:53.021Z,0.82
2023-04-15T19:17:19.873Z,1.42
2023-04-15T19:19:48.631Z,1.67
2023-04-15T19:22:15.940Z,1.33
2023-04-15T19:24:47.092Z,1.13
2023-04-15T19:27:13.893Z,2.45
2023-04-15T19:29:40.695Z,1.15
2023-04-15T19:32:09.473Z,0.82
2023-04-15T19:34:36.036Z,2.03
2023-04-15T19:37:02.551Z,2.55
2023-04-15T19:39:35.930Z,1.00
2023-04-15T19:42:02.836Z,2.13
2023-04-15T19:44:31.707Z,1.20
2023-04-15T19:47:00.104Z,2.60
2023-04-15T19:49:26.965Z,1.33
2023-04-15T19:51:53.488Z,2.05
2023-04-15T19:54:21.732Z,3.03
2023-04-15T19:56:48.609Z,2.50
2023-04-15T19:59:15.123Z,3.55
2023-04-15T20:01:43.433Z,2.28
2023-04-15T20:04:10.486Z,2.88
2023-04-15T20:06:37.084Z,1.30
2023-04-15T20:09:07.377Z,1.20
2023-04-15T20:12:06.132Z,3.05
2023-04-15T20:14:22.086Z,2.45
2023-04-15T20:16:48.825Z,1.33
2023-04-15T20:19:15.346Z,3.10
2023-04-15T20:21:43.727Z,6.80
2023-04-15T20:24:10.865Z,4.32
2023-04-15T20:26:37.382Z,2.63
2023-04-15T20:29:11.637Z,2.17
2023-04-15T20:31:38.171Z,2.17
2023-04-15T20:34:04.793Z,1.90
2023-04-15T20:36:33.633Z,2.22
2023-04-15T20:39:00.356Z,1.35
2023-04-15T20:41:29.131Z,1.15
2023-04-15T20:43:55.821Z,1.42
2023-04-15T20:46:22.757Z,1.20
2023-04-15T20:48:50.571Z,3.10
2023-04-15T20:51:18.828Z,2.05
2023-04-15T20:53:49.766Z,1.67
2023-04-15T20:56:16.324Z,1.23
2023-04-15T20:58:42.927Z,1.10
2023-04-15T21:01:09.533Z,1.25
2023-04-15T21:03:36.399Z,3.40
2023-04-15T21:06:07.515Z,0.82
2023-04-15T21:08:33.966Z,1.35
2023-04-15T21:11:00.451Z,0.93
2023-04-15T21:13:27.130Z,0.93
2023-04-15T21:15:54.416Z,0.80
2023-04-15T21:18:23.377Z,1.00
2023-04-15T21:21:02.519Z,2.30
2023-04-15T21:23:31.516Z,2.25
2023-04-15T21:25:58.838Z,1.35
2023-04-15T21:28:28.129Z,1.65
2023-04-15T21:30:54.627Z,1.55
2023-04-15T21:33:21.169Z,2.30
2023-04-15T21:35:52.336Z,1.20
2023-04-15T21:38:19.592Z,1.30
2023-04-15T21:40:49.827Z,1.10
2023-04-15T21:43:18.337Z,1.80
2023-04-15T21:46:00.429Z,1.63
2023-04-15T21:48:33.427Z,1.45
2023-04-15T21:51:01.706Z,1.67
2023-04-15T21:53:30.025Z,1.63
2023-04-15T21:55:58.556Z,1.38
2023-04-15T21:58:25.160Z,0.80
2023-04-15T22:00:52.465Z,1.88
2023-04-15T22:03:21.390Z,1.10
2023-04-15T22:05:48.380Z,0.82
2023-04-15T22:08:15.606Z,1.85
2023-04-15T22:10:42.243Z,1.17
2023-04-15T22:13:11.008Z,1.88
2023-04-15T22:15:37.948Z,1.20
2023-04-15T22:18:08.554Z,1.00
2023-04-15T22:20:35.101Z,1.77
2023-04-15T22:23:03.963Z,0.98
2023-04-15T22:25:35.973Z,1.15
2023-04-15T22:28:03.360Z,1.70
2023-04-15T22:30:29.874Z,1.88
2023-04-15T22:32:56.528Z,1.63
2023-04-15T22:35:23.055Z,1.73
2023-04-15T22:37:49.574Z,2.05
2023-04-15T22:40:16.651Z,1.70
2023-04-15T22:42:43.141Z,2.70
2023-04-15T22:45:10.166Z,1.45
2023-04-15T22:47:36.874Z,4.10
2023-04-15T22:50:03.666Z,1.58
2023-04-15T22:52:31.234Z,1.45
2023-04-15T22:55:00.468Z,2.00
2023-04-15T22:57:28.129Z,1.27
2023-04-15T22:59:54.643Z,1.77
2023-04-15T23:02:21.514Z,2.85
2023-04-15T23:04:48.376Z,2.40
2023-04-15T23:07:14.932Z,2.53
2023-04-15T23:09:46.171Z,1.38
2023-04-15T23:12:13.711Z,2.35
2023-04-15T23:14:40.342Z,2.70
2023-04-15T23:17:06.937Z,1.38
2023-04-15T23:19:33.435Z,1.67
2023-04-15T23:22:03.384Z,1.38
2023-04-15T23:24:30.095Z,1.20
2023-04-15T23:26:57.224Z,3.30
2023-04-15T23:29:23.885Z,1.40
2023-04-15T23:31:51.193Z,1.20
2023-04-15T23:34:19.644Z,1.60
2023-04-15T23:36:46.968Z,1.10
2023-04-15T23:39:13.585Z,1.55
2023-04-15T23:41:40.209Z,3.22
2023-04-15T23:44:07.187Z,2.25
2023-04-15T23:46:42.334Z,1.23
2023-04-15T23:49:08.994Z,1.83
2023-04-15T23:51:35.579Z,4.00
2023-04-15T23:54:04.299Z,2.00
2023-04-15T23:56:31.824Z,1.98
2023-04-15T23:58:58.519Z,1.90
